createdAt,value
2018-07-16T00:00:43.936Z,30.35
2018-07-16T00:01:43.961Z,30.73
2018-07-16T00:02:43.987Z,30.93
2018-07-16T00:03:44.016Z,30.83
2018-07-16T00:04:44.040Z,30.54
2018-07-16T00:05:44.068Z,30.63
2018-07-16T00:06:43.852Z,30.93
2018-07-16T00:07:44.178Z,31.02
2018-07-16T00:08:43.879Z,31.22
2018-07-16T00:09:43.907Z,30.93
2018-07-16T00:10:44.194Z,31.49
2018-07-16T00:11:44.219Z,31.41
2018-07-16T00:12:44.242Z,31.12
2018-07-16T00:13:44.269Z,31.3
2018-07-16T00:14:44.098Z,31.3
2018-07-16T00:15:44.058Z,31.4
2018-07-16T00:16:44.085Z,31.2
2018-07-16T00:17:44.368Z,31.4
2018-07-16T00:18:44.396Z,31.2
2018-07-16T00:19:50.425Z,31.49
2018-07-16T00:20:44.444Z,31.4
2018-07-16T00:21:44.471Z,31.3
2018-07-16T00:22:44.490Z,31.49
2018-07-16T00:23:44.260Z,31.49
2018-07-16T00:24:44.283Z,31.78
2018-07-16T00:25:44.310Z,31.78
2018-07-16T00:26:44.592Z,31.68
2018-07-16T00:27:44.620Z,31.88
2018-07-16T00:28:44.383Z,32.07
2018-07-16T00:29:44.669Z,32.17
2018-07-16T00:30:44.692Z,32.07
2018-07-16T00:31:44.718Z,32.07
2018-07-16T00:32:44.484Z,31.88
2018-07-16T00:33:44.775Z,31.98
2018-07-16T00:34:44.799Z,32.07
2018-07-16T00:35:44.562Z,31.67
2018-07-16T00:36:44.843Z,31.67
2018-07-16T00:37:44.878Z,32.36
2018-07-16T00:38:44.639Z,32.46
2018-07-16T00:39:44.670Z,32.34
2018-07-16T00:40:44.685Z,32.06
2018-07-16T00:41:44.705Z,32.34
2018-07-16T00:42:44.734Z,32.15
2018-07-16T00:43:44.757Z,31.86
2018-07-16T00:44:44.787Z,32.34
2018-07-16T00:45:45.081Z,32.54
2018-07-16T00:46:44.833Z,32.73
2018-07-16T00:47:45.120Z,32.44
2018-07-16T00:48:44.880Z,32.54
2018-07-16T00:49:45.167Z,32.24
2018-07-16T00:50:45.195Z,32.34
2018-07-16T00:51:44.958Z,32.34
2018-07-16T00:52:45.237Z,32.44
2018-07-16T00:53:45.263Z,32.73
2018-07-16T00:54:45.294Z,32.82
2018-07-16T00:55:45.421Z,32.92
2018-07-16T00:56:45.079Z,33.12
2018-07-16T00:57:45.364Z,32.91
2018-07-16T00:58:45.388Z,32.81
2018-07-16T00:59:45.433Z,33.1
2018-07-16T01:00:45.177Z,33
2018-07-16T01:01:45.464Z,33.1
2018-07-16T01:02:45.227Z,33.39
2018-07-16T01:03:45.250Z,33.2
2018-07-16T01:04:45.543Z,33.2
2018-07-16T01:05:45.564Z,33.1
2018-07-16T01:06:45.321Z,33.48
2018-07-16T01:07:45.616Z,33.29
2018-07-16T01:08:45.635Z,33.39
2018-07-16T01:09:45.658Z,33.39
2018-07-16T01:10:45.423Z,33.39
2018-07-16T01:11:45.453Z,33.48
2018-07-16T01:12:45.730Z,33.78
2018-07-16T01:13:45.756Z,33.87
2018-07-16T01:14:45.780Z,33.68
2018-07-16T01:15:45.809Z,33.87
2018-07-16T01:16:45.878Z,33.97
2018-07-16T01:17:45.852Z,33.68
2018-07-16T01:18:45.877Z,33.48
2018-07-16T01:19:45.903Z,33.68
2018-07-16T01:20:45.925Z,33.86
2018-07-16T01:21:45.951Z,33.87
2018-07-16T01:22:45.979Z,33.76
2018-07-16T01:23:45.752Z,34.14
2018-07-16T01:24:45.763Z,34.14
2018-07-16T01:25:45.787Z,34.05
2018-07-16T01:26:46.071Z,33.95
2018-07-16T01:27:46.103Z,33.97
2018-07-16T01:28:45.858Z,33.86
2018-07-16T01:29:46.144Z,33.95
2018-07-16T01:30:46.169Z,34.14
2018-07-16T01:31:46.192Z,34.44
2018-07-16T01:32:46.219Z,34.05
2018-07-16T01:33:46.249Z,34.24
2018-07-16T01:34:46.273Z,33.95
2018-07-16T01:35:46.290Z,34.14
2018-07-16T01:36:46.312Z,34.34
2018-07-16T01:37:46.079Z,34.24
2018-07-16T01:38:46.362Z,34.63
2018-07-16T01:39:46.386Z,34.72
2018-07-16T01:40:46.413Z,34.63
2018-07-16T01:41:46.444Z,34.82
2018-07-16T01:42:46.471Z,34.82
2018-07-16T01:43:46.482Z,34.63
2018-07-16T01:44:46.507Z,34.61
2018-07-16T01:45:46.269Z,34.53
2018-07-16T01:46:46.553Z,34.7
2018-07-16T01:47:46.578Z,34.92
2018-07-16T01:48:46.601Z,35.1
2018-07-16T01:49:46.368Z,35
2018-07-16T01:50:46.390Z,34.82
2018-07-16T01:51:46.427Z,34.9
2018-07-16T01:52:46.697Z,35
2018-07-16T01:53:46.723Z,34.8
2018-07-16T01:54:46.745Z,35
2018-07-16T01:55:46.778Z,35.28
2018-07-16T01:56:46.797Z,35.38
2018-07-16T01:57:46.818Z,35.38
2018-07-16T01:58:46.842Z,35.1
2018-07-16T01:59:46.864Z,35.28
2018-07-16T02:00:46.892Z,35.38
2018-07-16T02:01:46.656Z,35.38
2018-07-16T02:02:46.936Z,35.38
2018-07-16T02:03:46.965Z,35.58
2018-07-16T02:04:46.723Z,35.38
2018-07-16T02:05:47.008Z,35.48
2018-07-16T02:06:47.033Z,35.38
2018-07-16T02:07:47.055Z,35.38
2018-07-16T02:08:47.081Z,35.38
2018-07-16T02:09:47.104Z,35.27
2018-07-16T02:10:47.125Z,35.86
2018-07-16T02:11:47.148Z,35.75
2018-07-16T02:12:47.220Z,35.67
2018-07-16T02:13:47.389Z,35.65
2018-07-16T02:14:47.228Z,35.65
2018-07-16T02:15:47.670Z,36.04
2018-07-16T02:16:47.276Z,35.94
2018-07-16T02:17:47.035Z,36.04
2018-07-16T02:18:47.319Z,35.94
2018-07-16T02:19:47.347Z,36.13
2018-07-16T02:20:47.364Z,36.04
2018-07-16T02:21:47.387Z,36.04
2018-07-16T02:22:47.838Z,36.33
2018-07-16T02:23:47.661Z,36.71
2018-07-16T02:24:47.515Z,36.33
2018-07-16T02:25:47.485Z,36.23
2018-07-16T02:26:47.503Z,36.43
2018-07-16T02:27:47.533Z,36.61
2018-07-16T02:28:47.290Z,36.61
2018-07-16T02:29:47.576Z,36.33
2018-07-16T02:30:47.625Z,36.61
2018-07-16T02:31:47.645Z,36.52
2018-07-16T02:32:47.649Z,36.71
2018-07-16T02:33:47.415Z,36.13
2018-07-16T02:34:47.704Z,36.81
2018-07-16T02:35:47.457Z,36.81
2018-07-16T02:36:47.741Z,36.79
2018-07-16T02:37:47.780Z,37.08
2018-07-16T02:38:47.787Z,36.91
2018-07-16T02:39:47.814Z,37.01
2018-07-16T02:40:47.579Z,36.91
2018-07-16T02:41:47.859Z,36.69
2018-07-16T02:42:47.900Z,36.81
2018-07-16T02:43:47.653Z,36.79
2018-07-16T02:44:47.932Z,36.89
2018-07-16T02:45:47.954Z,36.79
2018-07-16T02:46:47.975Z,36.51
2018-07-16T02:47:47.999Z,37.18
2018-07-16T02:48:47.762Z,36.89
2018-07-16T02:49:47.817Z,37.27
2018-07-16T02:50:47.809Z,37.08
2018-07-16T02:51:47.831Z,37.76
2018-07-16T02:52:48.117Z,37.66
2018-07-16T02:53:48.142Z,37.66
2018-07-16T02:54:48.172Z,37.56
2018-07-16T02:55:48.189Z,37.66
2018-07-16T02:56:47.946Z,37.46
2018-07-16T02:57:47.972Z,37.66
2018-07-16T02:58:48.260Z,37.85
2018-07-16T02:59:48.288Z,37.85
2018-07-16T03:00:48.047Z,38.04
2018-07-16T03:01:48.331Z,37.95
2018-07-16T03:02:48.351Z,37.85
2018-07-16T03:03:48.372Z,37.85
2018-07-16T03:04:48.403Z,37.85
2018-07-16T03:05:48.417Z,37.76
2018-07-16T03:06:48.443Z,37.46
2018-07-16T03:07:48.465Z,37.27
2018-07-16T03:08:48.488Z,37.35
2018-07-16T03:09:48.251Z,37.46
2018-07-16T03:10:48.281Z,37.83
2018-07-16T03:11:48.554Z,37.74
2018-07-16T03:12:48.575Z,37.74
2018-07-16T03:13:48.604Z,38.22
2018-07-16T03:14:48.364Z,38.22
2018-07-16T03:15:48.650Z,38.02
2018-07-16T03:16:48.413Z,38.31
2018-07-16T03:17:48.695Z,38.41
2018-07-16T03:18:48.714Z,38.41
2018-07-16T03:19:48.479Z,38.31
2018-07-16T03:20:48.772Z,38.31
2018-07-16T03:21:48.787Z,38.41
2018-07-16T03:22:48.809Z,38.51
2018-07-16T03:23:48.571Z,38.41
2018-07-16T03:24:48.864Z,38.41
2018-07-16T03:25:48.619Z,38.31
2018-07-16T03:26:48.903Z,38.31
2018-07-16T03:27:48.922Z,38.22
2018-07-16T03:28:48.951Z,38.31
2018-07-16T03:29:48.708Z,38.7
2018-07-16T03:30:48.991Z,38.6
2018-07-16T03:31:49.022Z,38.7
2018-07-16T03:32:49.037Z,38.7
2018-07-16T03:33:49.105Z,38.31
2018-07-16T03:34:49.080Z,38.79
2018-07-16T03:35:49.107Z,38.7
2018-07-16T03:36:49.131Z,38.6
2018-07-16T03:37:49.155Z,38.78
2018-07-16T03:38:49.175Z,38.89
2018-07-16T03:39:49.201Z,38.68
2018-07-16T03:40:49.225Z,38.79
2018-07-16T03:41:49.240Z,38.89
2018-07-16T03:42:49.005Z,38.78
2018-07-16T03:43:49.293Z,38.68
2018-07-16T03:44:49.311Z,38.89
2018-07-16T03:45:49.335Z,38.97
2018-07-16T03:46:49.358Z,38.97
2018-07-16T03:47:49.118Z,38.87
2018-07-16T03:48:49.403Z,39.06
2018-07-16T03:49:49.425Z,39.16
2018-07-16T03:50:49.450Z,39.16
2018-07-16T03:51:49.472Z,39.16
2018-07-16T03:52:49.495Z,39.16
2018-07-16T03:53:49.523Z,39.06
2018-07-16T03:54:49.281Z,39.16
2018-07-16T03:55:49.699Z,39.26
2018-07-16T03:56:49.647Z,39.26
2018-07-16T03:57:49.606Z,39.36
2018-07-16T03:58:49.630Z,39.36
2018-07-16T03:59:49.652Z,39.64
2018-07-16T04:00:49.678Z,39.64
2018-07-16T04:01:49.438Z,39.54
2018-07-16T04:02:49.719Z,39.64
2018-07-16T04:03:49.746Z,39.54
2018-07-16T04:04:49.765Z,39.54
2018-07-16T04:05:49.792Z,39.54
2018-07-16T04:06:49.555Z,39.64
2018-07-16T04:07:49.887Z,39.64
2018-07-16T04:08:49.858Z,39.54
2018-07-16T04:09:49.886Z,39.64
2018-07-16T04:10:49.641Z,39.74
2018-07-16T04:11:49.924Z,39.64
2018-07-16T04:12:49.946Z,39.64
2018-07-16T04:13:49.967Z,39.93
2018-07-16T04:14:49.991Z,39.93
2018-07-16T04:15:49.755Z,39.93
2018-07-16T04:16:50.044Z,39.93
2018-07-16T04:17:50.065Z,39.74
2018-07-16T04:18:49.821Z,39.64
2018-07-16T04:19:49.845Z,40.03
2018-07-16T04:20:50.131Z,39.83
2018-07-16T04:21:50.153Z,39.93
2018-07-16T04:22:50.179Z,39.93
2018-07-16T04:23:49.948Z,40.31
2018-07-16T04:24:50.224Z,40.12
2018-07-16T04:25:50.241Z,40.31
2018-07-16T04:26:50.267Z,40.03
2018-07-16T04:27:50.025Z,40.03
2018-07-16T04:28:50.306Z,40.03
2018-07-16T04:29:50.327Z,40.31
2018-07-16T04:30:50.537Z,40.41
2018-07-16T04:31:50.379Z,40.12
2018-07-16T04:32:50.403Z,40.12
2018-07-16T04:33:50.427Z,40.22
2018-07-16T04:34:50.446Z,40.8
2018-07-16T04:35:50.206Z,40.22
2018-07-16T04:36:50.226Z,40.7
2018-07-16T04:37:50.511Z,40.61
2018-07-16T04:38:50.530Z,40.51
2018-07-16T04:39:50.646Z,40.51
2018-07-16T04:40:50.318Z,40.7
2018-07-16T04:41:50.603Z,40.51
2018-07-16T04:42:50.622Z,40.61
2018-07-16T04:43:50.645Z,40.8
2018-07-16T04:44:50.676Z,40.41
2018-07-16T04:45:50.434Z,40.89
2018-07-16T04:46:50.711Z,40.99
2018-07-16T04:47:50.483Z,40.51
2018-07-16T04:48:50.755Z,40.7
2018-07-16T04:49:50.776Z,40.89
2018-07-16T04:50:50.806Z,40.8
2018-07-16T04:51:50.823Z,40.8
2018-07-16T04:52:50.845Z,40.99
2018-07-16T04:53:50.868Z,41.08
2018-07-16T04:54:50.893Z,40.8
2018-07-16T04:55:50.913Z,40.7
2018-07-16T04:56:50.691Z,40.99
2018-07-16T04:57:50.967Z,40.99
2018-07-16T04:58:51.032Z,40.99
2018-07-16T04:59:51.005Z,40.8
2018-07-16T05:00:51.030Z,41.08
2018-07-16T05:01:50.787Z,40.99
2018-07-16T05:02:51.069Z,40.99
2018-07-16T05:03:51.097Z,41.18
2018-07-16T05:04:51.119Z,41.08
2018-07-16T05:05:50.878Z,40.8
2018-07-16T05:06:51.160Z,40.99
2018-07-16T05:07:51.218Z,41.18
2018-07-16T05:08:51.202Z,41.18
2018-07-16T05:09:50.968Z,41.18
2018-07-16T05:10:51.263Z,41.08
2018-07-16T05:11:51.275Z,41.18
2018-07-16T05:12:51.302Z,41.18
2018-07-16T05:13:51.316Z,41.18
2018-07-16T05:14:51.338Z,41.28
2018-07-16T05:15:51.364Z,41.38
2018-07-16T05:16:51.125Z,41.08
2018-07-16T05:17:51.409Z,41.47
2018-07-16T05:18:51.439Z,41.08
2018-07-16T05:19:51.192Z,41.08
2018-07-16T05:20:51.493Z,41.28
2018-07-16T05:21:51.500Z,40.99
2018-07-16T05:22:51.518Z,41.08
2018-07-16T05:23:51.280Z,41.08
2018-07-16T05:24:51.567Z,41.08
2018-07-16T05:25:51.585Z,41.66
2018-07-16T05:26:51.347Z,41.66
2018-07-16T05:27:51.628Z,41.76
2018-07-16T05:28:51.654Z,41.86
2018-07-16T05:29:51.674Z,41.86
2018-07-16T05:30:51.698Z,41.95
2018-07-16T05:31:51.702Z,41.76
2018-07-16T05:32:51.844Z,41.95
2018-07-16T05:33:51.503Z,41.66
2018-07-16T05:34:51.787Z,41.56
2018-07-16T05:35:51.548Z,42.14
2018-07-16T05:36:51.833Z,42.14
2018-07-16T05:37:51.855Z,42.24
2018-07-16T05:38:51.874Z,41.86
2018-07-16T05:39:51.900Z,42.24
2018-07-16T05:40:51.920Z,42.14
2018-07-16T05:41:51.719Z,42.14
2018-07-16T05:42:51.972Z,42.14
2018-07-16T05:43:51.989Z,42.14
2018-07-16T05:44:51.756Z,42.24
2018-07-16T05:45:52.035Z,42.05
2018-07-16T05:46:52.056Z,42.14
2018-07-16T05:47:52.079Z,42.26
2018-07-16T05:48:52.104Z,42.36
2018-07-16T05:49:52.120Z,42.07
2018-07-16T05:50:52.155Z,42.53
2018-07-16T05:51:52.173Z,42.26
2018-07-16T05:52:52.190Z,42.26
2018-07-16T05:53:52.218Z,42.65
2018-07-16T05:54:51.976Z,42.53
2018-07-16T05:55:52.258Z,42.74
2018-07-16T05:56:52.297Z,42.55
2018-07-16T05:57:52.305Z,42.74
2018-07-16T05:58:52.322Z,42.65
2018-07-16T05:59:52.348Z,42.55
2018-07-16T06:00:52.379Z,42.55
2018-07-16T06:01:52.393Z,42.74
2018-07-16T06:02:52.422Z,42.93
2018-07-16T06:03:52.435Z,42.74
2018-07-16T06:04:52.468Z,42.93
2018-07-16T06:05:52.482Z,43.13
2018-07-16T06:06:52.246Z,43.13
2018-07-16T06:07:52.264Z,42.65
2018-07-16T06:08:52.921Z,42.65
2018-07-16T06:09:52.572Z,42.74
2018-07-16T06:10:52.594Z,42.65
2018-07-16T06:11:52.615Z,43.03
2018-07-16T06:12:52.641Z,43.03
2018-07-16T06:13:52.778Z,43.03
2018-07-16T06:14:52.680Z,43.41
2018-07-16T06:15:52.452Z,43.44
2018-07-16T06:16:52.843Z,43.71
2018-07-16T06:17:52.490Z,43.71
2018-07-16T06:18:52.775Z,43.82
2018-07-16T06:19:52.800Z,44.21
2018-07-16T06:20:52.559Z,43.73
2018-07-16T06:21:52.842Z,44.02
2018-07-16T06:22:52.861Z,43.82
2018-07-16T06:23:52.908Z,43.92
2018-07-16T06:24:52.910Z,44.11
2018-07-16T06:25:52.932Z,43.73
2018-07-16T06:26:52.956Z,43.82
2018-07-16T06:27:52.976Z,43.82
2018-07-16T06:28:53.001Z,44.11
2018-07-16T06:29:53.024Z,43.82
2018-07-16T06:30:52.782Z,43.92
2018-07-16T06:31:53.096Z,43.92
2018-07-16T06:32:53.341Z,43.65
2018-07-16T06:33:53.401Z,44.02
2018-07-16T06:34:53.134Z,43.65
2018-07-16T06:35:53.157Z,43.54
2018-07-16T06:36:53.180Z,43.37
2018-07-16T06:37:53.203Z,43.63
2018-07-16T06:38:52.965Z,43.37
2018-07-16T06:39:53.358Z,43.75
2018-07-16T06:40:53.860Z,42.79
2018-07-16T06:41:53.301Z,42.69
2018-07-16T06:42:53.318Z,42.49
2018-07-16T06:43:53.335Z,42.59
2018-07-16T06:44:53.362Z,42.4
2018-07-16T06:45:53.383Z,42.3
2018-07-16T06:46:53.151Z,42.21
2018-07-16T06:47:53.677Z,42.02
2018-07-16T06:48:53.454Z,41.82
2018-07-16T06:49:53.472Z,41.14
2018-07-16T06:50:53.518Z,41.14
2018-07-16T06:51:53.260Z,41.24
2018-07-16T06:52:53.553Z,41.24
2018-07-16T06:53:53.581Z,41.24
2018-07-16T06:54:53.327Z,41.27
2018-07-16T06:55:53.618Z,41.17
2018-07-16T06:56:53.634Z,41.27
2018-07-16T06:57:53.656Z,41.36
2018-07-16T06:58:53.679Z,40.88
2018-07-16T06:59:53.704Z,41.07
2018-07-16T07:00:53.724Z,41.17
2018-07-16T07:01:53.952Z,41.07
2018-07-16T07:02:53.778Z,41.07
2018-07-16T07:03:53.794Z,40.97
2018-07-16T07:04:53.556Z,41.19
2018-07-16T07:05:53.842Z,41.19
2018-07-16T07:06:53.863Z,41.09
2018-07-16T07:07:53.627Z,40.61
2018-07-16T07:08:53.921Z,40.7
2018-07-16T07:09:53.972Z,41.09
2018-07-16T07:10:53.694Z,40.99
2018-07-16T07:11:53.720Z,40.99
2018-07-16T07:12:54.001Z,40.99
2018-07-16T07:13:54.023Z,40.9
2018-07-16T07:14:54.044Z,40.44
2018-07-16T07:15:54.075Z,40.72
2018-07-16T07:16:54.097Z,40.82
2018-07-16T07:17:54.119Z,40.82
2018-07-16T07:18:54.154Z,41.02
2018-07-16T07:19:54.160Z,40.92
2018-07-16T07:20:53.927Z,40.92
2018-07-16T07:21:54.209Z,40.63
2018-07-16T07:22:54.232Z,40.26
2018-07-16T07:23:54.257Z,40.26
2018-07-16T07:24:54.280Z,40.36
2018-07-16T07:25:54.044Z,40.55
2018-07-16T07:26:54.332Z,40.36
2018-07-16T07:27:54.371Z,40.36
2018-07-16T07:28:54.372Z,40.26
2018-07-16T07:29:54.398Z,39.99
2018-07-16T07:30:54.420Z,40.09
2018-07-16T07:31:54.443Z,39.9
2018-07-16T07:32:54.206Z,40.09
2018-07-16T07:33:54.489Z,39.8
2018-07-16T07:34:54.545Z,39.62
2018-07-16T07:35:54.631Z,39.51
2018-07-16T07:36:54.562Z,39.53
2018-07-16T07:37:54.582Z,39.53
2018-07-16T07:38:54.610Z,39.14
2018-07-16T07:39:54.381Z,38.87
2018-07-16T07:40:54.658Z,38.68
2018-07-16T07:41:54.675Z,38.87
2018-07-16T07:42:54.699Z,38.78
2018-07-16T07:43:54.728Z,38.58
2018-07-16T07:44:54.747Z,38.6
2018-07-16T07:45:54.515Z,38.31
2018-07-16T07:46:54.532Z,38.12
2018-07-16T07:47:54.817Z,37.92
2018-07-16T07:48:54.841Z,38.21
2018-07-16T07:49:54.872Z,37.73
2018-07-16T07:50:54.887Z,38.04
2018-07-16T07:51:54.921Z,38.04
2018-07-16T07:52:54.936Z,37.17
2018-07-16T07:53:54.962Z,37.36
2018-07-16T07:54:56.313Z,36.68
2018-07-16T07:55:55.012Z,36.98
2018-07-16T07:56:55.041Z,37.19
2018-07-16T07:57:54.796Z,36.8
2018-07-16T07:58:55.085Z,36.7
2018-07-16T07:59:55.108Z,36.43
2018-07-16T08:00:55.130Z,36.32
2018-07-16T08:01:55.151Z,35.75
2018-07-16T08:02:55.180Z,36.04
2018-07-16T08:03:55.201Z,35.56
2018-07-16T08:04:55.228Z,35.27
2018-07-16T08:05:55.251Z,35.07
2018-07-16T08:06:55.275Z,34.89
2018-07-16T08:07:55.040Z,34.7
2018-07-16T08:08:55.325Z,34.51
2018-07-16T08:09:55.354Z,34.22
2018-07-16T08:10:55.417Z,34.41
2018-07-16T08:11:55.409Z,34.31
2018-07-16T08:12:55.428Z,34.41
2018-07-16T08:13:56.076Z,33.94
2018-07-16T08:14:55.550Z,34.33
2018-07-16T08:15:55.509Z,34.14
2018-07-16T08:16:55.258Z,33.47
2018-07-16T08:17:55.556Z,33.76
2018-07-16T08:18:55.579Z,33.38
2018-07-16T08:19:55.622Z,33.18
2018-07-16T08:20:55.892Z,33.09
2018-07-16T08:21:55.648Z,32.91
2018-07-16T08:22:55.406Z,32.42
2018-07-16T08:23:55.702Z,32.52
2018-07-16T08:24:55.725Z,32.91
2018-07-16T08:25:55.647Z,32.73
2018-07-16T08:26:55.505Z,32.34
2018-07-16T08:27:55.989Z,32.64
2018-07-16T08:28:56.375Z,32.15
2018-07-16T08:29:55.848Z,31.66
2018-07-16T08:30:55.879Z,31.29
2018-07-16T08:31:55.900Z,30.9
2018-07-16T08:32:55.922Z,30.9
2018-07-16T08:33:55.986Z,30.41
2018-07-16T08:34:55.977Z,30.82
2018-07-16T08:35:56.002Z,30.24
2018-07-16T08:36:56.513Z,30.43
2018-07-16T08:37:56.054Z,29.94
2018-07-16T08:38:56.105Z,30.05
2018-07-16T08:39:56.112Z,29.57
2018-07-16T08:40:56.131Z,29.76
2018-07-16T08:41:56.158Z,29.57
2018-07-16T08:42:56.186Z,29.49
2018-07-16T08:43:55.938Z,29
2018-07-16T08:44:55.964Z,29.19
2018-07-16T08:45:56.249Z,29
2018-07-16T08:46:56.293Z,28.63
2018-07-16T08:47:56.301Z,28.51
2018-07-16T08:48:56.335Z,28.04
2018-07-16T08:49:56.353Z,28.23
2018-07-16T08:50:56.382Z,27.84
2018-07-16T08:51:56.409Z,27.84
2018-07-16T08:52:56.543Z,27.76
2018-07-16T08:53:56.462Z,27.76
2018-07-16T08:54:56.486Z,27.37
2018-07-16T08:55:56.251Z,27.39
2018-07-16T08:56:56.538Z,27.19
2018-07-16T08:57:56.566Z,27.09
2018-07-16T08:58:56.595Z,27.09
2018-07-16T08:59:56.617Z,27.3
2018-07-16T09:00:56.645Z,27.2
2018-07-16T09:01:56.674Z,27.3
2018-07-16T09:02:56.700Z,27.02
2018-07-16T09:03:56.472Z,26.43
2018-07-16T09:04:56.492Z,26.53
2018-07-16T09:05:56.783Z,25.85
2018-07-16T09:06:56.810Z,25.67
2018-07-16T09:07:56.832Z,25.37
2018-07-16T09:08:56.598Z,25.37
2018-07-16T09:09:56.884Z,25.18
2018-07-16T09:10:57.131Z,25.1
2018-07-16T09:11:56.939Z,24.9
2018-07-16T09:12:56.966Z,24.8
2018-07-16T09:13:57.012Z,24.71
2018-07-16T09:14:57.021Z,24.02
2018-07-16T09:15:57.048Z,24.12
2018-07-16T09:16:57.297Z,24.22
2018-07-16T09:17:57.107Z,24.32
2018-07-16T09:18:57.130Z,23.74
2018-07-16T09:19:57.158Z,23.83
2018-07-16T09:20:57.196Z,23.74
2018-07-16T09:21:57.212Z,23.44
2018-07-16T09:22:57.246Z,23.44
2018-07-16T09:23:57.275Z,23.35
2018-07-16T09:24:57.296Z,22.66
2018-07-16T09:25:57.328Z,23.36
2018-07-16T09:26:57.094Z,22.97
2018-07-16T09:27:57.387Z,23.16
2018-07-16T09:28:57.409Z,23.07
2018-07-16T09:29:57.437Z,23.07
2018-07-16T09:30:57.465Z,22.97
2018-07-16T09:31:57.492Z,22.87
2018-07-16T09:32:57.524Z,22.49
2018-07-16T09:33:57.548Z,22.59
2018-07-16T09:34:57.592Z,22.59
2018-07-16T09:35:57.618Z,22.59
2018-07-16T09:36:57.637Z,22.49
2018-07-16T09:37:57.666Z,22.39
2018-07-16T09:38:57.434Z,22.11
2018-07-16T09:39:57.719Z,22.41
2018-07-16T09:40:57.756Z,22.31
2018-07-16T09:41:57.515Z,22.5
2018-07-16T09:42:57.805Z,22.5
2018-07-16T09:43:57.576Z,22.11
2018-07-16T09:44:57.868Z,21.92
2018-07-16T09:45:57.891Z,22.02
2018-07-16T09:46:57.661Z,22.31
2018-07-16T09:47:58.005Z,22.61
2018-07-16T09:48:57.976Z,22.31
2018-07-16T09:49:58.012Z,22.02
2018-07-16T09:50:58.035Z,21.63
2018-07-16T09:51:58.069Z,21.83
2018-07-16T09:52:58.105Z,21.44
2018-07-16T09:53:58.120Z,21.24
2018-07-16T09:54:58.160Z,21.34
2018-07-16T09:55:58.192Z,21.73
2018-07-16T09:56:58.209Z,21.53
2018-07-16T09:57:58.235Z,21.73
2018-07-16T09:58:58.009Z,21.34
2018-07-16T09:59:58.296Z,21.44
2018-07-16T10:00:58.325Z,21.63
2018-07-16T10:01:58.356Z,21.44
2018-07-16T10:02:58.382Z,21.44
2018-07-16T10:03:58.151Z,21.14
2018-07-16T10:04:58.453Z,21.04
2018-07-16T10:05:58.478Z,21.35
2018-07-16T10:06:58.500Z,21.15
2018-07-16T10:07:58.530Z,21.35
2018-07-16T10:08:58.598Z,21.15
2018-07-16T10:09:58.588Z,21.15
2018-07-16T10:10:58.364Z,21.45
2018-07-16T10:11:58.647Z,21.26
2018-07-16T10:12:58.678Z,20.77
2018-07-16T10:13:58.708Z,21.16
2018-07-16T10:14:58.740Z,21.26
2018-07-16T10:15:58.768Z,21.36
2018-07-16T10:16:58.536Z,21.45
2018-07-16T10:17:58.833Z,20.78
2018-07-16T10:18:58.855Z,21.08
2018-07-16T10:19:58.627Z,20.78
2018-07-16T10:20:58.925Z,20.59
2018-07-16T10:21:58.947Z,20.59
2018-07-16T10:22:58.715Z,20.3
2018-07-16T10:23:59.005Z,19.92
2018-07-16T10:24:59.035Z,19.92
2018-07-16T10:25:58.846Z,19.82
2018-07-16T10:26:58.840Z,19.72
2018-07-16T10:27:59.136Z,19.13
2018-07-16T10:28:59.157Z,19.44
2018-07-16T10:29:59.187Z,19.24
2018-07-16T10:30:59.224Z,19.24
2018-07-16T10:31:59.247Z,19.34
2018-07-16T10:32:59.018Z,19.14
2018-07-16T10:33:59.714Z,19.35
2018-07-16T10:34:59.079Z,19.45
2018-07-16T10:35:59.370Z,19.06
2018-07-16T10:36:59.405Z,19.15
2018-07-16T10:37:59.438Z,19.25
2018-07-16T10:38:59.465Z,19.16
2018-07-16T10:39:59.231Z,18.87
2018-07-16T10:40:59.520Z,18.77
2018-07-16T10:41:59.295Z,18.87
2018-07-16T10:42:59.593Z,18.87
2018-07-16T10:43:59.621Z,18.29
2018-07-16T10:44:59.384Z,18.48
2018-07-16T10:45:59.416Z,18.48
2018-07-16T10:46:59.708Z,18.48
2018-07-16T10:47:59.740Z,18.58
2018-07-16T10:48:59.508Z,18.29
2018-07-16T10:49:59.540Z,17.99
2018-07-16T10:50:59.843Z,18.19
2018-07-16T10:51:59.861Z,17.69
2018-07-16T10:52:59.895Z,17.9
2018-07-16T10:53:59.925Z,17.71
2018-07-16T10:54:59.700Z,18
2018-07-16T10:55:59.726Z,18.1
2018-07-16T10:57:00.028Z,18.1
2018-07-16T10:58:00.053Z,18.19
2018-07-16T10:59:00.087Z,18
2018-07-16T11:00:00.118Z,18.11
2018-07-16T11:01:00.151Z,18.21
2018-07-16T11:02:00.257Z,17.81
2018-07-16T11:03:00.334Z,18.21
2018-07-16T11:03:59.977Z,17.92
2018-07-16T11:05:00.270Z,18.12
2018-07-16T11:06:00.045Z,17.52
2018-07-16T11:07:00.332Z,17.62
2018-07-16T11:08:00.107Z,17.54
2018-07-16T11:09:00.411Z,17.73
2018-07-16T11:10:00.169Z,17.43
2018-07-16T11:11:00.206Z,17.05
2018-07-16T11:12:00.496Z,16.85
2018-07-16T11:13:00.525Z,16.66
2018-07-16T11:14:00.302Z,16.46
2018-07-16T11:15:00.363Z,16.56
2018-07-16T11:16:00.632Z,16.66
2018-07-16T11:17:00.395Z,16.47
2018-07-16T11:18:00.439Z,16.36
2018-07-16T11:19:00.718Z,16.87
2018-07-16T11:20:00.758Z,17.07
2018-07-16T11:21:00.610Z,16.67
2018-07-16T11:22:00.820Z,16.57
2018-07-16T11:23:00.590Z,16.57
2018-07-16T11:24:00.883Z,16.38
2018-07-16T11:25:00.914Z,16.09
2018-07-16T11:26:00.954Z,16.19
2018-07-16T11:27:01.235Z,15.49
2018-07-16T11:28:01.115Z,15.59
2018-07-16T11:29:00.783Z,15.49
2018-07-16T11:30:01.127Z,15.69
2018-07-16T11:31:00.869Z,15.49
2018-07-16T11:32:01.147Z,15.39
2018-07-16T11:33:01.275Z,16.09
2018-07-16T11:34:01.215Z,15.99
2018-07-16T11:35:01.246Z,16.09
2018-07-16T11:36:01.274Z,15.99
2018-07-16T11:37:01.047Z,15.69
2018-07-16T11:38:01.351Z,15.3
2018-07-16T11:39:01.384Z,15.69
2018-07-16T11:40:01.404Z,15.59
2018-07-16T11:41:01.442Z,15.6
2018-07-16T11:42:01.211Z,15.7
2018-07-16T11:43:01.246Z,15.3
2018-07-16T11:44:01.541Z,15.6
2018-07-16T11:45:01.575Z,15.7
2018-07-16T11:46:01.658Z,15.2
2018-07-16T11:47:01.645Z,15.41
2018-07-16T11:48:01.669Z,15.21
2018-07-16T11:49:01.705Z,15.11
2018-07-16T11:50:01.736Z,15.21
2018-07-16T11:51:01.768Z,15.11
2018-07-16T11:52:01.807Z,15.22
2018-07-16T11:53:01.838Z,15.61
2018-07-16T11:54:01.867Z,14.83
2018-07-16T11:55:01.902Z,15.12
2018-07-16T11:56:01.941Z,15.22
2018-07-16T11:57:01.972Z,15.22
2018-07-16T11:58:02.011Z,15.22
2018-07-16T11:59:02.162Z,14.83
2018-07-16T12:00:02.072Z,15.13
2018-07-16T12:01:01.843Z,14.93
2018-07-16T12:02:01.877Z,14.83
2018-07-16T12:03:02.178Z,14.74
2018-07-16T12:04:02.207Z,14.44
2018-07-16T12:05:02.356Z,14.64
2018-07-16T12:06:02.274Z,14.25
2018-07-16T12:07:02.048Z,13.85
2018-07-16T12:08:02.345Z,13.85
2018-07-16T12:09:02.372Z,13.95
2018-07-16T12:10:02.414Z,13.85
2018-07-16T12:11:02.448Z,14.06
2018-07-16T12:12:02.476Z,13.85
2018-07-16T12:13:02.515Z,13.85
2018-07-16T12:14:02.550Z,13.95
2018-07-16T12:15:02.587Z,14.06
2018-07-16T12:16:02.624Z,13.96
2018-07-16T12:17:02.643Z,13.96
2018-07-16T12:18:02.679Z,13.37
2018-07-16T12:19:02.716Z,13.37
2018-07-16T12:20:02.756Z,13.67
2018-07-16T12:21:02.780Z,13.57
2018-07-16T12:22:02.555Z,13.57
2018-07-16T12:23:02.850Z,13.67
2018-07-16T12:24:02.887Z,13.47
2018-07-16T12:25:02.933Z,13.28
2018-07-16T12:26:02.880Z,13.18
2018-07-16T12:27:02.988Z,12.88
2018-07-16T12:28:03.025Z,12.99
2018-07-16T12:29:02.797Z,13.09
2018-07-16T12:30:03.091Z,12.49
2018-07-16T12:31:03.125Z,12.7
2018-07-16T12:32:02.927Z,12.5
2018-07-16T12:33:03.196Z,12.4
2018-07-16T12:34:03.237Z,12.5
2018-07-16T12:35:03.276Z,12.2
2018-07-16T12:36:03.303Z,12.3
2018-07-16T12:37:03.331Z,12.1
2018-07-16T12:38:03.380Z,12.01
2018-07-16T12:39:03.410Z,11.71
2018-07-16T12:40:03.196Z,11.81
2018-07-16T12:41:03.477Z,11.61
2018-07-16T12:42:03.256Z,11.42
2018-07-16T12:43:03.541Z,11.43
2018-07-16T12:44:03.575Z,11.43
2018-07-16T12:45:03.355Z,11.43
2018-07-16T12:46:03.653Z,11.22
2018-07-16T12:47:03.793Z,11.52
2018-07-16T12:48:03.770Z,11.33
2018-07-16T12:49:03.751Z,11.33
2018-07-16T12:50:03.787Z,11.23
2018-07-16T12:51:03.823Z,11.33
2018-07-16T12:52:03.857Z,11.22
2018-07-16T12:53:03.630Z,11.03
2018-07-16T12:54:03.934Z,10.83
2018-07-16T12:55:03.701Z,11.33
2018-07-16T12:56:03.999Z,11.22